createdAt,value
2022-11-03T00:00:11.485Z,10.15
2022-11-03T00:02:44.487Z,10.40
2022-11-03T00:05:32.876Z,10.65
2022-11-03T00:08:06.011Z,10.30
2022-11-03T00:10:35.910Z,10.02
2022-11-03T00:15:38.989Z,9.10
2022-11-03T00:18:10.985Z,9.85
2022-11-03T00:20:42.024Z,8.40
2022-11-03T00:23:17.342Z,9.27
2022-11-03T00:25:46.760Z,7.25
2022-11-03T00:28:20.673Z,7.07
2022-11-03T00:30:51.646Z,5.93
2022-11-03T00:33:27.545Z,6.10
2022-11-03T00:36:02.539Z,5.85
2022-11-03T00:38:33.864Z,5.60
2022-11-03T00:41:06.102Z,5.72
2022-11-03T00:43:37.660Z,5.53
2022-11-03T00:46:09.714Z,5.50
2022-11-03T00:48:43.241Z,4.55
2022-11-03T00:51:28.036Z,4.90
2022-11-03T00:54:04.203Z,4.82
2022-11-03T00:56:37.867Z,4.78
2022-11-03T00:59:09.911Z,4.28
2022-11-03T01:01:47.201Z,4.10
2022-11-03T01:04:38.171Z,5.15
2022-11-03T01:07:08.441Z,6.65
2022-11-03T01:09:41.643Z,6.50
2022-11-03T01:12:19.144Z,7.07
2022-11-03T01:14:52.337Z,5.82
2022-11-03T01:17:24.988Z,5.80
2022-11-03T01:19:56.436Z,5.93
2022-11-03T01:22:25.944Z,5.80
2022-11-03T01:24:56.895Z,6.25
2022-11-03T01:27:26.504Z,6.07
2022-11-03T01:29:57.501Z,6.00
2022-11-03T01:32:27.095Z,6.97
2022-11-03T01:35:00.394Z,5.70
2022-11-03T01:37:30.520Z,5.53
2022-11-03T01:40:05.066Z,5.43
2022-11-03T01:42:34.572Z,4.90
2022-11-03T01:45:03.944Z,5.43
2022-11-03T01:47:36.816Z,4.40
2022-11-03T01:50:11.841Z,3.87
2022-11-03T01:52:53.176Z,4.50
2022-11-03T01:55:31.272Z,3.87
2022-11-03T01:58:08.901Z,4.18
2022-11-03T02:00:43.314Z,4.03
2022-11-03T02:03:14.904Z,3.70
2022-11-03T02:05:47.899Z,3.87
2022-11-03T02:08:28.947Z,4.15
2022-11-03T02:10:59.911Z,3.62
2022-11-03T02:13:32.924Z,3.58
2022-11-03T02:16:05.609Z,3.37
2022-11-03T02:18:35.570Z,3.97
2022-11-03T02:21:50.771Z,4.10
2022-11-03T02:24:51.268Z,3.58
2022-11-03T02:27:24.749Z,3.58
2022-11-03T02:29:55.294Z,3.60
2022-11-03T02:32:33.284Z,3.90
2022-11-03T02:35:20.207Z,3.42
2022-11-03T02:37:55.880Z,3.87
2022-11-03T02:40:34.583Z,3.78
2022-11-03T02:43:04.425Z,3.53
2022-11-03T02:45:33.016Z,4.20
2022-11-03T02:48:03.062Z,4.15
2022-11-03T02:50:33.578Z,4.15
2022-11-03T02:53:02.365Z,3.83
2022-11-03T02:55:48.597Z,3.67
2022-11-03T02:58:26.716Z,3.60
2022-11-03T03:01:14.998Z,3.50
2022-11-03T03:03:50.424Z,4.00
2022-11-03T03:06:29.463Z,3.55
2022-11-03T03:09:02.175Z,3.87
2022-11-03T03:11:39.981Z,3.30
2022-11-03T03:14:15.051Z,3.50
2022-11-03T03:16:49.349Z,3.47
2022-11-03T03:19:49.428Z,3.87
2022-11-03T03:22:25.294Z,4.00
2022-11-03T03:25:07.709Z,4.45
2022-11-03T03:27:40.150Z,3.83
2022-11-03T03:30:10.276Z,3.90
2022-11-03T03:32:41.428Z,3.05
2022-11-03T03:35:20.682Z,3.53
2022-11-03T03:37:52.082Z,3.65
2022-11-03T03:40:25.692Z,3.78
2022-11-03T03:42:57.056Z,3.42
2022-11-03T03:45:26.948Z,3.85
2022-11-03T03:47:57.763Z,3.67
2022-11-03T03:50:29.040Z,3.87
2022-11-03T03:53:06.111Z,4.03
2022-11-03T03:55:37.956Z,4.87
2022-11-03T03:58:07.696Z,3.53
2022-11-03T04:03:21.774Z,3.17
2022-11-03T04:05:50.119Z,4.15
2022-11-03T04:08:20.110Z,3.47
2022-11-03T04:11:07.534Z,3.60
2022-11-03T04:13:55.720Z,3.95
2022-11-03T04:16:42.619Z,3.92
2022-11-03T04:19:30.598Z,4.25
2022-11-03T04:22:16.740Z,3.80
2022-11-03T04:24:51.938Z,4.68
2022-11-03T04:27:41.269Z,4.37
2022-11-03T04:30:09.482Z,3.83
2022-11-03T04:32:38.416Z,5.15
2022-11-03T04:35:22.672Z,5.20
2022-11-03T04:37:59.278Z,4.72
2022-11-03T04:40:28.249Z,4.32
2022-11-03T04:42:57.908Z,5.25
2022-11-03T04:45:30.961Z,3.95
2022-11-03T04:48:02.243Z,5.22
2022-11-03T04:50:30.905Z,4.25
2022-11-03T04:53:00.586Z,5.20
2022-11-03T04:55:29.363Z,5.47
2022-11-03T04:57:59.054Z,5.55
2022-11-03T05:00:28.710Z,5.07
2022-11-03T05:02:56.961Z,5.20
2022-11-03T05:05:26.584Z,5.72
2022-11-03T05:07:57.384Z,4.97
2022-11-03T05:10:27.875Z,4.78
2022-11-03T05:12:57.128Z,5.37
2022-11-03T05:15:31.946Z,5.50
2022-11-03T05:18:02.114Z,5.80
2022-11-03T05:20:50.785Z,7.43
2022-11-03T05:23:20.402Z,7.07
2022-11-03T05:25:51.236Z,5.80
2022-11-03T05:28:31.709Z,7.05
2022-11-03T05:31:00.395Z,6.53
2022-11-03T05:33:34.917Z,6.05
2022-11-03T05:36:15.586Z,5.53
2022-11-03T05:38:44.636Z,5.78
2022-11-03T05:41:20.354Z,6.43
2022-11-03T05:44:02.854Z,7.57
2022-11-03T05:46:32.605Z,6.25
2022-11-03T05:49:02.865Z,6.13
2022-11-03T05:51:35.311Z,5.87
2022-11-03T05:54:06.030Z,7.05
2022-11-03T05:56:35.337Z,7.10
2022-11-03T05:59:05.325Z,6.00
2022-11-03T06:01:35.872Z,5.80
2022-11-03T06:04:28.287Z,4.87
2022-11-03T06:07:00.935Z,5.28
2022-11-03T06:09:30.362Z,6.47
2022-11-03T06:12:03.799Z,6.32
2022-11-03T06:14:40.586Z,5.53
2022-11-03T06:17:36.209Z,5.97
2022-11-03T06:20:29.925Z,6.43
2022-11-03T06:23:33.029Z,6.55
2022-11-03T06:26:19.430Z,6.53
2022-11-03T06:28:56.370Z,6.45
2022-11-03T06:31:56.038Z,6.30
2022-11-03T06:34:52.756Z,6.12
2022-11-03T06:44:02.628Z,7.20
2022-11-03T06:46:51.496Z,6.95
2022-11-03T06:49:46.438Z,7.30
2022-11-03T06:52:40.375Z,7.80
2022-11-03T06:55:53.941Z,8.18
2022-11-03T06:58:29.919Z,7.50
2022-11-03T07:01:38.925Z,7.95
2022-11-03T07:04:21.061Z,8.68
2022-11-03T07:08:31.302Z,7.50
2022-11-03T07:11:30.376Z,6.93
2022-11-03T07:14:39.649Z,6.05
2022-11-03T07:17:35.848Z,6.93
2022-11-03T07:20:36.578Z,6.00
2022-11-03T07:23:22.567Z,6.47
2022-11-03T07:26:00.634Z,6.35
2022-11-03T07:28:36.108Z,7.22
2022-11-03T07:31:17.239Z,6.28
2022-11-03T07:36:22.450Z,7.35
2022-11-03T07:38:56.803Z,8.50
2022-11-03T07:41:58.135Z,8.00
2022-11-03T07:44:29.747Z,9.90
2022-11-03T07:47:00.701Z,9.35
2022-11-03T07:49:30.687Z,9.65
2022-11-03T07:52:01.046Z,11.68
2022-11-03T07:54:32.198Z,10.90
2022-11-03T07:57:04.473Z,12.23
2022-11-03T07:59:39.108Z,11.02
2022-11-03T08:02:36.449Z,12.90
2022-11-03T08:05:08.115Z,13.50
2022-11-03T08:07:42.318Z,13.27
2022-11-03T08:10:15.368Z,14.23
2022-11-03T08:13:01.500Z,14.70
2022-11-03T08:15:38.805Z,15.02
2022-11-03T08:20:38.339Z,15.95
2022-11-03T08:23:25.747Z,16.20
2022-11-03T08:25:54.539Z,15.63
2022-11-03T08:28:23.358Z,15.63
2022-11-03T08:30:51.386Z,16.42
2022-11-03T08:33:19.726Z,15.30
2022-11-03T08:35:48.905Z,14.55
2022-11-03T08:38:16.988Z,14.45
2022-11-03T08:40:50.082Z,15.25
2022-11-03T08:43:21.023Z,15.02
2022-11-03T08:45:53.742Z,14.77
2022-11-03T08:48:27.375Z,15.48
2022-11-03T08:50:58.547Z,14.48
2022-11-03T08:53:27.851Z,15.38
2022-11-03T08:55:56.608Z,16.25
2022-11-03T08:58:25.214Z,15.95
2022-11-03T09:00:54.562Z,15.98
2022-11-03T09:03:22.731Z,17.27
2022-11-03T09:05:52.001Z,16.98
2022-11-03T09:11:10.596Z,16.20
2022-11-03T09:13:39.804Z,15.63
2022-11-03T09:16:08.482Z,16.42
2022-11-03T09:18:36.651Z,17.40
2022-11-03T09:21:05.139Z,15.90
2022-11-03T09:23:33.561Z,16.23
2022-11-03T09:26:01.696Z,16.48
2022-11-03T09:28:30.468Z,15.98
2022-11-03T09:30:59.552Z,16.42
2022-11-03T09:33:31.075Z,16.90
2022-11-03T09:36:02.694Z,15.65
2022-11-03T09:38:30.628Z,15.75
2022-11-03T09:40:59.048Z,16.02
2022-11-03T09:43:30.322Z,15.95
2022-11-03T09:46:01.127Z,15.95
2022-11-03T09:48:30.570Z,15.07
2022-11-03T09:50:59.500Z,15.93
2022-11-03T09:53:30.896Z,16.55
2022-11-03T09:55:59.477Z,17.08
2022-11-03T09:58:28.044Z,16.10
2022-11-03T10:01:01.447Z,16.98
2022-11-03T10:03:32.476Z,17.37
2022-11-03T10:06:04.181Z,17.87
2022-11-03T10:08:40.298Z,17.25
2022-11-03T10:11:09.657Z,17.33
2022-11-03T10:13:40.646Z,17.75
2022-11-03T10:18:38.161Z,17.37
2022-11-03T10:21:09.421Z,17.40
2022-11-03T10:23:37.612Z,15.95
2022-11-03T10:26:11.692Z,16.35
2022-11-03T10:28:40.752Z,16.42
2022-11-03T10:31:22.449Z,17.75
2022-11-03T10:33:56.118Z,16.00
2022-11-03T10:36:26.968Z,17.10
2022-11-03T10:38:56.905Z,18.10
2022-11-03T10:41:30.100Z,17.15
2022-11-03T10:44:13.599Z,18.80
2022-11-03T10:46:56.426Z,16.65
2022-11-03T10:49:26.406Z,18.05
2022-11-03T10:51:58.044Z,19.02
2022-11-03T10:54:26.569Z,18.98
2022-11-03T10:56:56.120Z,19.12
2022-11-03T10:59:38.721Z,19.30
2022-11-03T11:02:16.423Z,18.35
2022-11-03T11:04:46.760Z,18.12
2022-11-03T11:07:22.048Z,17.60
2022-11-03T11:09:50.974Z,18.23
2022-11-03T11:12:25.991Z,17.80
2022-11-03T11:14:56.500Z,17.95
2022-11-03T11:17:37.158Z,18.92
2022-11-03T11:20:21.683Z,18.95
2022-11-03T11:22:51.492Z,19.08
2022-11-03T11:25:19.601Z,19.92
2022-11-03T11:27:57.922Z,19.12
2022-11-03T11:30:29.792Z,18.05
2022-11-03T11:33:01.922Z,18.65
2022-11-03T11:35:30.315Z,16.25
2022-11-03T11:38:37.302Z,18.12
2022-11-03T11:41:06.030Z,18.60
2022-11-03T11:43:33.862Z,17.87
2022-11-03T11:46:20.901Z,18.73
2022-11-03T11:49:05.085Z,18.23
2022-11-03T11:51:36.762Z,18.10
2022-11-03T11:54:18.857Z,17.37
2022-11-03T11:56:48.961Z,19.65
2022-11-03T11:59:25.158Z,18.95
2022-11-03T12:01:55.988Z,20.45
2022-11-03T12:04:27.233Z,19.40
2022-11-03T12:06:56.481Z,17.77
2022-11-03T12:09:29.537Z,17.95
2022-11-03T12:12:05.245Z,18.95
2022-11-03T12:14:38.511Z,20.12
2022-11-03T12:17:19.010Z,18.20
2022-11-03T12:19:49.097Z,18.85
2022-11-03T12:22:27.044Z,19.08
2022-11-03T12:24:59.070Z,20.60
2022-11-03T12:27:27.217Z,19.40
2022-11-03T12:29:56.688Z,18.60
2022-11-03T12:32:33.991Z,18.70
2022-11-03T12:35:08.631Z,18.25
2022-11-03T12:37:37.487Z,20.17
2022-11-03T12:40:06.830Z,20.30
2022-11-03T12:42:35.364Z,21.48
2022-11-03T12:45:04.996Z,19.58
2022-11-03T12:47:34.728Z,18.45
2022-11-03T12:50:04.815Z,20.15
2022-11-03T12:52:32.995Z,20.35
2022-11-03T12:55:00.879Z,20.48
2022-11-03T12:57:28.664Z,19.80
2022-11-03T12:59:56.696Z,19.52
2022-11-03T13:02:24.679Z,18.85
2022-11-03T13:04:52.466Z,19.95
2022-11-03T13:07:27.776Z,21.55
2022-11-03T13:09:58.334Z,23.10
2022-11-03T13:12:32.836Z,21.25
2022-11-03T13:15:04.309Z,20.95
2022-11-03T13:17:51.828Z,21.62
2022-11-03T13:20:20.099Z,20.08
2022-11-03T13:22:48.549Z,21.87
2022-11-03T13:25:17.886Z,18.95
2022-11-03T13:27:46.413Z,21.12
2022-11-03T13:30:14.684Z,22.17
2022-11-03T13:32:42.563Z,24.87
2022-11-03T13:35:13.649Z,25.98
2022-11-03T13:37:43.208Z,23.10
2022-11-03T13:40:35.570Z,24.23
2022-11-03T13:43:04.675Z,22.25
2022-11-03T13:45:33.123Z,26.20
2022-11-03T13:50:52.129Z,22.42
2022-11-03T13:56:11.397Z,22.20
2022-11-03T14:01:30.304Z,21.52
2022-11-03T14:06:47.400Z,20.15
2022-11-03T14:09:18.440Z,20.30
2022-11-03T14:12:10.487Z,20.25
2022-11-03T14:14:49.325Z,18.62
2022-11-03T14:17:21.769Z,19.48
2022-11-03T14:20:06.053Z,20.25
2022-11-03T14:22:38.510Z,20.08
2022-11-03T14:25:15.888Z,20.25
2022-11-03T14:27:51.338Z,19.33
2022-11-03T14:30:19.611Z,18.83
2022-11-03T14:32:47.838Z,19.17
2022-11-03T14:35:19.717Z,19.10
2022-11-03T14:37:59.225Z,20.45
2022-11-03T14:40:48.492Z,17.98
2022-11-03T14:43:17.388Z,17.77
2022-11-03T14:45:45.802Z,18.25
2022-11-03T14:48:16.328Z,17.87
2022-11-03T14:51:13.603Z,18.70
2022-11-03T14:53:42.440Z,19.27
2022-11-03T14:56:10.116Z,18.40
2022-11-03T14:58:38.067Z,18.73
2022-11-03T15:01:06.350Z,18.45
2022-11-03T15:03:36.106Z,17.92
2022-11-03T15:06:16.776Z,16.75
2022-11-03T15:08:50.766Z,18.73
2022-11-03T15:11:22.129Z,19.45
2022-11-03T15:13:52.633Z,17.87
2022-11-03T15:16:24.205Z,19.20
2022-11-03T15:18:54.893Z,20.73
2022-11-03T15:21:25.695Z,18.33
2022-11-03T15:26:45.828Z,19.35
2022-11-03T15:29:13.667Z,20.83
2022-11-03T15:31:47.236Z,20.35
2022-11-03T15:34:16.594Z,21.58
2022-11-03T15:36:45.491Z,19.35
2022-11-03T15:39:13.669Z,18.60
2022-11-03T15:41:42.189Z,17.95
2022-11-03T15:44:10.185Z,17.67
2022-11-03T15:46:38.095Z,18.00
2022-11-03T15:49:07.029Z,17.02
2022-11-03T15:51:35.026Z,17.27
2022-11-03T15:54:04.112Z,16.50
2022-11-03T15:56:32.296Z,17.35
2022-11-03T15:59:00.443Z,16.92
2022-11-03T16:01:28.296Z,17.95
2022-11-03T16:03:56.413Z,17.08
2022-11-03T16:06:46.526Z,17.58
2022-11-03T16:09:30.088Z,18.85
2022-11-03T16:11:59.023Z,19.98
2022-11-03T16:14:30.419Z,19.40
2022-11-03T16:16:58.984Z,20.15
2022-11-03T16:19:27.452Z,20.88
2022-11-03T16:21:56.576Z,20.90
2022-11-03T16:24:33.387Z,21.23
2022-11-03T16:27:04.935Z,21.85
2022-11-03T16:29:33.019Z,22.10
2022-11-03T16:32:01.582Z,20.70
2022-11-03T16:34:30.443Z,22.30
2022-11-03T16:36:58.535Z,21.25
2022-11-03T16:39:27.027Z,23.20
2022-11-03T16:41:57.305Z,22.95
2022-11-03T16:44:25.699Z,21.02
2022-11-03T16:46:55.318Z,22.10
2022-11-03T16:49:24.351Z,23.65
2022-11-03T16:51:52.870Z,22.33
2022-11-03T16:54:21.219Z,20.70
2022-11-03T16:56:54.524Z,22.42
2022-11-03T16:59:26.992Z,23.27
2022-11-03T17:01:57.512Z,22.10
2022-11-03T17:04:26.265Z,23.03
2022-11-03T17:06:54.316Z,23.42
2022-11-03T17:09:22.764Z,23.55
2022-11-03T17:11:50.973Z,23.92
2022-11-03T17:14:19.366Z,24.30
2022-11-03T17:16:48.821Z,23.73
2022-11-03T17:19:16.948Z,22.58
2022-11-03T17:21:45.873Z,23.73
2022-11-03T17:24:15.175Z,24.48
2022-11-03T17:26:52.897Z,25.35
2022-11-03T17:29:23.556Z,23.60
2022-11-03T17:31:52.858Z,25.08
2022-11-03T17:34:28.624Z,24.65
2022-11-03T17:37:07.926Z,26.70
2022-11-03T17:39:42.105Z,23.75
2022-11-03T17:42:26.748Z,23.73
2022-11-03T17:44:57.774Z,24.75
2022-11-03T17:47:27.510Z,24.12
2022-11-03T17:50:00.683Z,23.65
2022-11-03T17:52:29.654Z,23.52
2022-11-03T17:54:59.544Z,22.17
2022-11-03T17:57:28.541Z,23.95
2022-11-03T17:59:58.815Z,23.83
2022-11-03T18:02:31.568Z,23.85
2022-11-03T18:05:15.464Z,24.30
2022-11-03T18:07:49.249Z,24.70
2022-11-03T18:10:19.476Z,24.45
2022-11-03T18:13:08.085Z,26.02
2022-11-03T18:15:39.748Z,24.60
2022-11-03T18:18:13.702Z,24.17
2022-11-03T18:20:50.354Z,25.60
2022-11-03T18:23:24.545Z,24.63
2022-11-03T18:25:55.584Z,26.05
2022-11-03T18:28:24.049Z,23.85
2022-11-03T18:30:55.186Z,24.40
2022-11-03T18:33:26.783Z,26.87
2022-11-03T18:35:59.784Z,26.87
2022-11-03T18:38:29.750Z,25.00
2022-11-03T18:41:00.981Z,23.80
2022-11-03T18:43:33.269Z,24.00
2022-11-03T18:46:04.027Z,24.92
2022-11-03T18:48:33.320Z,25.48
2022-11-03T18:51:04.208Z,23.45
2022-11-03T18:53:32.449Z,26.12
2022-11-03T18:56:02.631Z,25.88
2022-11-03T18:58:40.644Z,24.73
2022-11-03T19:01:21.050Z,24.23
2022-11-03T19:03:50.512Z,24.73
2022-11-03T19:06:21.385Z,23.90
2022-11-03T19:08:59.029Z,25.62
2022-11-03T19:11:27.887Z,25.00
2022-11-03T19:14:00.320Z,25.25
2022-11-03T19:16:34.820Z,25.23
2022-11-03T19:19:05.221Z,23.58
2022-11-03T19:21:37.394Z,24.35
2022-11-03T19:24:07.652Z,24.15
2022-11-03T19:26:59.860Z,23.48
2022-11-03T19:31:58.932Z,24.52
2022-11-03T19:34:31.839Z,23.85
2022-11-03T19:37:01.908Z,23.55
2022-11-03T19:39:32.299Z,23.95
2022-11-03T19:42:26.157Z,23.65
2022-11-03T19:44:58.653Z,23.83
2022-11-03T19:47:35.561Z,24.50
2022-11-03T19:50:05.916Z,23.70
2022-11-03T19:55:06.250Z,23.17
2022-11-03T19:57:35.033Z,25.00
2022-11-03T20:00:07.473Z,23.40
2022-11-03T20:02:36.095Z,23.90
2022-11-03T20:05:06.065Z,23.55
2022-11-03T20:07:36.081Z,23.20
2022-11-03T20:10:13.363Z,24.80
2022-11-03T20:15:30.162Z,22.75
2022-11-03T20:17:58.746Z,22.70
2022-11-03T20:20:30.673Z,22.70
2022-11-03T20:23:01.058Z,22.77
2022-11-03T20:25:34.224Z,23.17
2022-11-03T20:28:18.154Z,24.75
2022-11-03T20:30:48.148Z,21.92
2022-11-03T20:33:19.934Z,22.42
2022-11-03T20:35:49.792Z,22.98
2022-11-03T20:38:20.827Z,22.23
2022-11-03T20:40:51.602Z,20.65
2022-11-03T20:43:24.540Z,22.02
2022-11-03T20:45:56.919Z,23.05
2022-11-03T20:48:27.182Z,21.90
2022-11-03T20:50:57.064Z,20.95
2022-11-03T20:53:26.879Z,22.35
2022-11-03T20:55:55.804Z,22.13
2022-11-03T20:58:25.848Z,20.98
2022-11-03T21:00:54.654Z,19.67
2022-11-03T21:06:19.651Z,19.65
2022-11-03T21:08:52.602Z,21.33
2022-11-03T21:11:24.140Z,20.95
2022-11-03T21:14:08.637Z,20.30
2022-11-03T21:16:57.159Z,20.92
2022-11-03T21:19:59.477Z,20.37
2022-11-03T21:22:56.417Z,21.00
2022-11-03T21:25:28.113Z,20.05
2022-11-03T21:27:58.921Z,20.90
2022-11-03T21:30:32.397Z,19.95
2022-11-03T21:33:04.541Z,20.55
2022-11-03T21:35:35.057Z,22.17
2022-11-03T21:38:06.701Z,18.50
2022-11-03T21:40:36.893Z,19.23
2022-11-03T21:43:25.426Z,18.33
2022-11-03T21:45:53.679Z,19.12
2022-11-03T21:48:40.785Z,20.27
2022-11-03T21:51:27.259Z,18.23
2022-11-03T21:53:56.706Z,20.52
2022-11-03T21:56:26.809Z,19.62
2022-11-03T21:58:55.503Z,18.30
2022-11-03T22:01:23.692Z,18.62
2022-11-03T22:03:51.870Z,20.40
2022-11-03T22:06:20.447Z,18.65
2022-11-03T22:08:48.205Z,19.87
2022-11-03T22:11:23.077Z,20.17
2022-11-03T22:13:58.414Z,19.20
2022-11-03T22:19:43.551Z,18.35
2022-11-03T22:22:33.110Z,20.55
2022-11-03T22:25:22.823Z,18.95
2022-11-03T22:27:57.068Z,19.75
2022-11-03T22:30:45.158Z,19.48
2022-11-03T22:33:16.408Z,18.83
2022-11-03T22:36:04.757Z,18.65
2022-11-03T22:38:54.904Z,19.00
2022-11-03T22:41:42.858Z,20.02
2022-11-03T22:44:30.466Z,18.65
2022-11-03T22:47:03.028Z,19.90
2022-11-03T22:49:32.826Z,18.75
2022-11-03T22:54:35.805Z,17.67
2022-11-03T22:59:34.580Z,18.15
2022-11-03T23:02:05.368Z,18.15
2022-11-03T23:04:36.593Z,18.20
2022-11-03T23:07:06.573Z,17.10
2022-11-03T23:09:42.195Z,18.10
2022-11-03T23:12:14.344Z,17.73
2022-11-03T23:15:06.735Z,17.37
2022-11-03T23:17:56.138Z,17.12
2022-11-03T23:20:53.083Z,16.87
2022-11-03T23:23:43.187Z,17.75
2022-11-03T23:26:16.724Z,16.98
2022-11-03T23:28:48.531Z,17.25
2022-11-03T23:31:20.501Z,16.73
2022-11-03T23:33:50.855Z,16.27
2022-11-03T23:36:21.222Z,17.15
2022-11-03T23:38:54.944Z,17.12
2022-11-03T23:41:26.839Z,17.20
2022-11-03T23:43:58.176Z,16.87
2022-11-03T23:46:48.712Z,16.17
2022-11-03T23:49:18.711Z,16.70
2022-11-03T23:51:48.509Z,17.98
2022-11-03T23:54:20.686Z,16.40
2022-11-03T23:57:11.279Z,18.40
